Time;durP1;ratioP1;P1;durP2;ratioP2;P2;SDS_P1;SDS_P2;PMS_P1;PMS_P2;Temp;Humidity;BMP_temperature;BMP_pressure;BME280_temperature;BME280_humidity;BME280_pressure;Samples;Min_cycle;Max_cycle;Signal;HPM_P1;HPM_P2
2024/03/05 00:02:13;;;;;;;28.23;21.73;;;;;;;;;;5022786;28;20241;-57
2024/03/05 00:04:39;;;;;;;28.97;22.93;;;;;;;;;;5017327;28;20237;-56
2024/03/05 00:07:07;;;;;;;29.27;23.03;;;;;;;;;;5028064;28;20181;-57
2024/03/05 00:09:33;;;;;;;29.83;22.40;;;;;;;;;;5026299;28;20170;-56
2024/03/05 00:11:59;;;;;;;29.33;21.43;;;;;;;;;;5026227;28;20292;-55
2024/03/05 00:14:25;;;;;;;27.00;21.37;;;;;;;;;;5030146;28;20277;-56
2024/03/05 00:16:51;;;;;;;28.87;21.80;;;;;;;;;;5017430;28;20603;-56
2024/03/05 00:19:17;;;;;;;27.40;21.97;;;;;;;;;;5030299;28;20309;-57
2024/03/05 00:21:43;;;;;;;31.17;23.33;;;;;;;;;;5027280;28;20317;-57
2024/03/05 00:24:09;;;;;;;31.53;23.00;;;;;;;;;;5028919;28;20186;-57
2024/03/05 00:26:36;;;;;;;27.87;21.60;;;;;;;;;;5019398;28;20606;-57
2024/03/05 00:29:03;;;;;;;30.37;21.67;;;;;;;;;;5012985;28;20219;-57
2024/03/05 00:31:29;;;;;;;29.07;21.60;;;;;;;;;;5021181;28;20183;-57
2024/03/05 00:33:55;;;;;;;30.27;23.07;;;;;;;;;;5018360;28;20587;-55
2024/03/05 00:36:21;;;;;;;29.73;22.30;;;;;;;;;;5024693;28;20178;-57
2024/03/05 00:38:47;;;;;;;30.03;23.13;;;;;;;;;;5015806;28;20182;-57
2024/03/05 00:41:14;;;;;;;26.93;20.30;;;;;;;;;;5023739;28;20300;-55
2024/03/05 00:43:40;;;;;;;34.07;22.90;;;;;;;;;;5015948;28;20210;-57
2024/03/05 00:46:06;;;;;;;32.10;22.73;;;;;;;;;;5019199;28;20216;-56
2024/03/05 00:48:33;;;;;;;33.13;22.70;;;;;;;;;;5024651;28;20185;-57
2024/03/05 00:50:59;;;;;;;31.70;22.20;;;;;;;;;;5028099;28;20186;-56
2024/03/05 00:53:25;;;;;;;33.70;23.00;;;;;;;;;;5024407;28;20238;-57
2024/03/05 00:55:51;;;;;;;31.53;22.37;;;;;;;;;;5018986;28;20201;-57
2024/03/05 00:58:17;;;;;;;29.40;21.07;;;;;;;;;;5027098;28;20224;-57
2024/03/05 01:00:43;;;;;;;29.90;22.50;;;;;;;;;;5030336;28;20224;-57
2024/03/05 01:03:12;;;;;;;29.37;20.67;;;;;;;;;;5021124;28;20198;-57
2024/03/05 01:05:38;;;;;;;34.13;22.73;;;;;;;;;;5018907;28;20662;-54
2024/03/05 01:08:04;;;;;;;29.80;21.70;;;;;;;;;;5013122;28;20188;-56
2024/03/05 01:10:30;;;;;;;34.13;23.07;;;;;;;;;;5021912;28;20666;-55
2024/03/05 01:12:56;;;;;;;34.20;22.33;;;;;;;;;;5024789;28;20276;-57
2024/03/05 01:15:22;;;;;;;30.23;21.27;;;;;;;;;;5021872;28;20567;-57
2024/03/05 01:17:48;;;;;;;32.23;22.43;;;;;;;;;;5014492;28;20222;-57
2024/03/05 01:20:18;;;;;;;34.17;21.17;;;;;;;;;;5020862;28;20279;-56
2024/03/05 01:22:46;;;;;;;34.00;22.97;;;;;;;;;;5023946;28;20182;-57
2024/03/05 01:25:12;;;;;;;30.27;22.13;;;;;;;;;;5027980;28;20668;-57
2024/03/05 01:27:39;;;;;;;36.23;23.37;;;;;;;;;;5015238;28;20258;-57
2024/03/05 01:30:10;;;;;;;34.10;22.33;;;;;;;;;;5012274;28;20212;-57
2024/03/05 01:32:36;;;;;;;33.30;22.33;;;;;;;;;;5012614;28;20178;-57
2024/03/05 01:35:04;;;;;;;33.80;22.70;;;;;;;;;;5021477;28;20610;-57
2024/03/05 01:37:31;;;;;;;33.40;23.37;;;;;;;;;;5010947;28;20187;-57
2024/03/05 01:39:57;;;;;;;33.30;22.07;;;;;;;;;;5024482;28;20745;-56
2024/03/05 01:42:23;;;;;;;34.40;23.07;;;;;;;;;;5022425;28;20587;-54
2024/03/05 01:44:49;;;;;;;31.53;22.80;;;;;;;;;;5024804;28;20682;-54
2024/03/05 01:47:16;;;;;;;31.90;22.90;;;;;;;;;;5020771;28;20181;-54
2024/03/05 01:49:42;;;;;;;33.03;22.40;;;;;;;;;;5026875;28;20181;-54
2024/03/05 01:52:09;;;;;;;37.40;24.20;;;;;;;;;;5023540;28;20666;-54
2024/03/05 01:54:35;;;;;;;36.73;23.70;;;;;;;;;;5028202;28;20193;-54
2024/03/05 01:57:04;;;;;;;35.17;23.30;;;;;;;;;;5030262;28;20189;-54
2024/03/05 01:59:30;;;;;;;36.30;24.40;;;;;;;;;;5009397;28;20179;-54
2024/03/05 02:01:57;;;;;;;33.80;24.07;;;;;;;;;;5022655;28;20186;-54
2024/03/05 02:04:24;;;;;;;33.40;21.83;;;;;;;;;;5027720;28;20292;-54
2024/03/05 02:06:51;;;;;;;31.83;22.07;;;;;;;;;;5027587;28;20192;-54
2024/03/05 02:09:20;;;;;;;34.77;23.00;;;;;;;;;;5021771;28;20182;-54
2024/03/05 02:11:46;;;;;;;32.03;21.70;;;;;;;;;;5026613;28;20219;-54
2024/03/05 02:14:12;;;;;;;32.83;22.77;;;;;;;;;;5026408;28;20231;-54
2024/03/05 02:16:38;;;;;;;36.13;22.73;;;;;;;;;;5017271;28;20190;-54
2024/03/05 02:19:04;;;;;;;32.87;21.43;;;;;;;;;;5024410;28;20186;-54
2024/03/05 02:21:34;;;;;;;36.17;22.73;;;;;;;;;;5018626;28;20217;-54
2024/03/05 02:24:00;;;;;;;33.90;20.60;;;;;;;;;;5017991;28;20333;-54
2024/03/05 02:26:30;;;;;;;37.77;22.53;;;;;;;;;;5018545;28;20325;-54
2024/03/05 02:28:56;;;;;;;33.97;22.60;;;;;;;;;;5018883;28;20670;-54
2024/03/05 02:31:23;;;;;;;34.07;22.93;;;;;;;;;;5021542;28;20182;-54
2024/03/05 02:33:49;;;;;;;31.83;20.83;;;;;;;;;;5026619;28;20197;-54
2024/03/05 02:36:15;;;;;;;33.77;21.47;;;;;;;;;;5025716;28;20188;-54
2024/03/05 02:38:41;;;;;;;35.47;21.50;;;;;;;;;;5027522;28;20231;-54
2024/03/05 02:41:07;;;;;;;31.67;21.17;;;;;;;;;;5021931;28;20381;-54
2024/03/05 02:43:33;;;;;;;30.93;21.00;;;;;;;;;;5022048;28;20201;-54
2024/03/05 02:45:59;;;;;;;33.50;20.57;;;;;;;;;;5021085;28;20296;-54
2024/03/05 02:48:25;;;;;;;33.50;20.57;;;;;;;;;;5014880;28;20201;-54
2024/03/05 02:50:51;;;;;;;32.43;20.50;;;;;;;;;;5024949;28;20629;-54
2024/03/05 02:53:17;;;;;;;31.60;20.77;;;;;;;;;;5019228;28;20220;-54
2024/03/05 02:55:47;;;;;;;34.37;21.63;;;;;;;;;;5018719;28;20225;-54
2024/03/05 02:58:13;;;;;;;29.80;20.23;;;;;;;;;;5021532;28;20189;-54
2024/03/05 03:00:39;;;;;;;34.67;22.00;;;;;;;;;;5020811;28;20231;-54
2024/03/05 03:03:05;;;;;;;31.43;20.97;;;;;;;;;;5027097;28;20186;-54
2024/03/05 03:05:31;;;;;;;35.67;22.07;;;;;;;;;;5027692;28;20292;-54
2024/03/05 03:07:57;;;;;;;33.50;21.53;;;;;;;;;;5011454;28;20605;-54
2024/03/05 03:10:24;;;;;;;32.27;20.87;;;;;;;;;;5026201;28;20169;-54
2024/03/05 03:12:50;;;;;;;30.87;20.60;;;;;;;;;;5026073;28;20272;-54
2024/03/05 03:15:20;;;;;;;33.17;20.37;;;;;;;;;;5026109;28;20190;-54
2024/03/05 03:17:46;;;;;;;34.40;21.40;;;;;;;;;;5025497;28;20194;-54
2024/03/05 03:20:15;;;;;;;32.87;19.57;;;;;;;;;;5029038;28;20225;-54
2024/03/05 03:22:44;;;;;;;34.50;20.63;;;;;;;;;;5025985;28;20296;-54
2024/03/05 03:25:11;;;;;;;31.30;19.53;;;;;;;;;;5030368;28;20554;-54
2024/03/05 03:27:37;;;;;;;33.17;21.23;;;;;;;;;;5022151;28;20353;-55
2024/03/05 03:30:05;;;;;;;28.67;19.70;;;;;;;;;;5026127;28;20181;-54
2024/03/05 03:32:31;;;;;;;33.97;21.00;;;;;;;;;;5030156;28;20292;-54
2024/03/05 03:34:57;;;;;;;29.93;20.13;;;;;;;;;;5024988;28;20193;-54
2024/03/05 03:37:23;;;;;;;30.90;20.50;;;;;;;;;;5026842;28;20260;-54
2024/03/05 03:39:49;;;;;;;29.33;18.87;;;;;;;;;;5018646;28;20537;-54
2024/03/05 03:42:17;;;;;;;30.80;20.50;;;;;;;;;;5019940;28;20224;-54
2024/03/05 03:44:43;;;;;;;32.77;21.03;;;;;;;;;;5021797;28;20297;-54
2024/03/05 03:47:09;;;;;;;37.03;22.20;;;;;;;;;;5018352;28;20237;-54
2024/03/05 03:49:38;;;;;;;29.80;19.13;;;;;;;;;;5020172;28;20186;-54
2024/03/05 03:52:04;;;;;;;34.17;20.93;;;;;;;;;;5020625;28;20179;-54
2024/03/05 03:54:30;;;;;;;26.93;18.17;;;;;;;;;;5023664;28;20189;-54
2024/03/05 03:56:56;;;;;;;29.93;19.27;;;;;;;;;;5022683;28;20201;-54
2024/03/05 03:59:22;;;;;;;30.10;19.30;;;;;;;;;;5029729;28;20178;-53
2024/03/05 04:01:49;;;;;;;29.17;19.83;;;;;;;;;;5014615;28;20182;-54
2024/03/05 04:04:15;;;;;;;30.27;19.47;;;;;;;;;;5014833;28;20252;-55
2024/03/05 04:06:42;;;;;;;27.50;20.23;;;;;;;;;;5024391;28;20186;-51
2024/03/05 04:09:08;;;;;;;28.23;19.03;;;;;;;;;;5026561;28;20182;-51
2024/03/05 04:11:37;;;;;;;28.70;19.10;;;;;;;;;;5027303;28;20482;-51
2024/03/05 04:14:03;;;;;;;31.33;20.03;;;;;;;;;;5029973;28;20654;-50
2024/03/05 04:16:30;;;;;;;30.20;19.53;;;;;;;;;;5022957;28;20171;-51
2024/03/05 04:18:56;;;;;;;31.20;19.30;;;;;;;;;;5011457;28;20185;-51
2024/03/05 04:21:23;;;;;;;30.37;18.87;;;;;;;;;;5028221;28;20221;-51
2024/03/05 04:23:49;;;;;;;31.50;19.47;;;;;;;;;;5024929;28;20197;-51
2024/03/05 04:26:23;;;;;;;35.72;22.67;;;;;;;;;;5027322;28;20446;-51
2024/03/05 04:28:49;;;;;;;33.17;21.07;;;;;;;;;;5028880;28;20495;-51
2024/03/05 04:31:16;;;;;;;31.00;19.07;;;;;;;;;;5022752;28;20233;-51
2024/03/05 04:33:43;;;;;;;31.17;19.80;;;;;;;;;;5029907;28;20533;-51
2024/03/05 04:36:09;;;;;;;28.67;19.63;;;;;;;;;;5024746;28;20167;-50
2024/03/05 04:38:37;;;;;;;30.97;21.03;;;;;;;;;;5029124;28;20174;-50
2024/03/05 04:41:04;;;;;;;30.87;20.77;;;;;;;;;;5023515;28;20182;-51
2024/03/05 04:43:30;;;;;;;30.97;19.43;;;;;;;;;;5028253;28;20194;-51
2024/03/05 04:45:56;;;;;;;31.67;20.33;;;;;;;;;;5021282;28;20233;-53
2024/03/05 04:48:22;;;;;;;30.97;21.27;;;;;;;;;;5013404;28;20221;-51
2024/03/05 04:50:49;;;;;;;30.83;20.67;;;;;;;;;;5020861;28;20276;-52
2024/03/05 04:53:15;;;;;;;29.50;19.80;;;;;;;;;;5026639;28;20190;-54
2024/03/05 04:55:41;;;;;;;30.57;21.70;;;;;;;;;;5019205;28;20240;-51
2024/03/05 04:58:07;;;;;;;33.30;21.27;;;;;;;;;;5026763;28;20661;-50
2024/03/05 05:00:33;;;;;;;30.30;21.03;;;;;;;;;;5024144;28;20524;-51
2024/03/05 05:02:59;;;;;;;32.33;20.93;;;;;;;;;;5027607;28;20213;-50
2024/03/05 05:05:25;;;;;;;31.30;20.93;;;;;;;;;;5028867;28;20197;-51
2024/03/05 05:07:53;;;;;;;30.73;21.57;;;;;;;;;;5028231;28;20687;-51
2024/03/05 05:10:20;;;;;;;28.37;20.23;;;;;;;;;;5026981;28;20178;-50
2024/03/05 05:12:46;;;;;;;29.00;20.97;;;;;;;;;;5017248;28;20216;-52
2024/03/05 05:15:12;;;;;;;30.50;20.93;;;;;;;;;;5026348;28;20178;-53
2024/03/05 05:17:41;;;;;;;31.67;21.07;;;;;;;;;;5028409;28;20564;-54
2024/03/05 05:20:08;;;;;;;32.33;21.13;;;;;;;;;;5018991;28;20238;-53
2024/03/05 05:22:34;;;;;;;29.77;21.00;;;;;;;;;;5019184;28;20619;-53
2024/03/05 05:25:00;;;;;;;31.33;21.27;;;;;;;;;;5023487;28;20289;-53
2024/03/05 05:27:26;;;;;;;33.97;25.70;;;;;;;;;;5028001;28;20444;-54
2024/03/05 05:29:52;;;;;;;29.33;20.50;;;;;;;;;;5027710;28;20166;-54
2024/03/05 05:32:18;;;;;;;31.00;21.00;;;;;;;;;;5020493;28;20481;-54
2024/03/05 05:34:44;;;;;;;30.23;21.17;;;;;;;;;;5019377;28;20516;-54
2024/03/05 05:37:10;;;;;;;33.30;22.10;;;;;;;;;;5028433;28;20190;-54
2024/03/05 05:39:37;;;;;;;28.47;19.23;;;;;;;;;;5023032;28;20573;-54
2024/03/05 05:42:03;;;;;;;30.30;21.40;;;;;;;;;;5021755;28;20213;-54
2024/03/05 05:44:29;;;;;;;29.43;19.93;;;;;;;;;;5025147;28;20246;-53
2024/03/05 05:46:56;;;;;;;29.30;20.73;;;;;;;;;;5019638;28;20198;-54
2024/03/05 05:49:23;;;;;;;26.80;19.30;;;;;;;;;;5020682;28;20174;-54
2024/03/05 05:51:49;;;;;;;30.43;21.27;;;;;;;;;;5018315;28;20187;-54
2024/03/05 05:54:16;;;;;;;33.37;20.00;;;;;;;;;;5021790;28;20697;-54
2024/03/05 05:56:43;;;;;;;29.17;19.97;;;;;;;;;;5017300;28;20293;-54
2024/03/05 05:59:09;;;;;;;26.97;18.53;;;;;;;;;;5019476;28;20627;-54
2024/03/05 06:01:37;;;;;;;32.10;21.03;;;;;;;;;;5014533;28;20191;-54
2024/03/05 06:04:06;;;;;;;34.63;20.63;;;;;;;;;;5017877;28;20193;-54
2024/03/05 06:06:32;;;;;;;30.27;20.60;;;;;;;;;;5014961;28;20216;-53
2024/03/05 06:08:58;;;;;;;32.47;21.10;;;;;;;;;;5021443;28;20199;-53
2024/03/05 06:11:24;;;;;;;30.30;19.77;;;;;;;;;;5020143;28;20170;-54
2024/03/05 06:13:50;;;;;;;30.97;19.70;;;;;;;;;;5016565;28;20639;-54
2024/03/05 06:16:16;;;;;;;32.63;21.40;;;;;;;;;;5027457;28;20655;-53
2024/03/05 06:18:43;;;;;;;31.30;20.20;;;;;;;;;;5028897;28;20266;-54
2024/03/05 06:21:09;;;;;;;29.17;19.07;;;;;;;;;;5020991;28;20221;-53
2024/03/05 06:23:35;;;;;;;29.93;19.63;;;;;;;;;;5021635;28;20179;-56
2024/03/05 06:26:01;;;;;;;28.57;20.40;;;;;;;;;;5018610;28;20312;-55
2024/03/05 06:28:27;;;;;;;28.63;19.00;;;;;;;;;;5012138;28;20213;-56
2024/03/05 06:30:53;;;;;;;29.93;19.70;;;;;;;;;;5019997;28;20190;-56
2024/03/05 06:33:19;;;;;;;29.40;20.17;;;;;;;;;;5011013;28;20179;-55
2024/03/05 06:35:46;;;;;;;30.97;19.03;;;;;;;;;;5014903;28;20194;-55
2024/03/05 06:38:13;;;;;;;31.40;20.03;;;;;;;;;;5015144;28;20633;-56
2024/03/05 06:40:39;;;;;;;30.30;19.23;;;;;;;;;;5026955;28;20592;-56
2024/03/05 06:43:13;;;;;;;33.63;20.80;;;;;;;;;;5024941;28;20514;-55
2024/03/05 06:45:42;;;;;;;30.60;20.40;;;;;;;;;;5018392;28;20621;-56
2024/03/05 06:48:08;;;;;;;29.33;18.87;;;;;;;;;;5025788;28;20174;-56
2024/03/05 06:50:36;;;;;;;28.47;18.73;;;;;;;;;;5022201;28;20206;-56
2024/03/05 06:58:36;;;;;;;30.63;19.83;;;;;;;;;;5025874;28;20204;-60
2024/03/05 07:01:09;;;;;;;29.07;19.60;;;;;;;;;;5030023;28;20644;-59
2024/03/05 07:03:35;;;;;;;28.13;19.60;;;;;;;;;;5048371;28;20169;-59
2024/03/05 07:06:12;;;;;;;30.77;20.23;;;;;;;;;;5026868;28;20845;-59
2024/03/05 07:08:39;;;;;;;32.67;19.67;;;;;;;;;;5011217;28;20594;-59
2024/03/05 07:11:08;;;;;;;29.17;18.17;;;;;;;;;;5017674;28;20225;-59
2024/03/05 07:13:34;;;;;;;28.27;18.60;;;;;;;;;;5018565;28;20167;-58
2024/03/05 07:16:02;;;;;;;26.13;17.40;;;;;;;;;;5020584;28;20192;-57
2024/03/05 07:18:28;;;;;;;28.30;18.97;;;;;;;;;;5035040;28;20189;-59
2024/03/05 07:20:54;;;;;;;29.80;17.90;;;;;;;;;;5027105;28;20241;-58
2024/03/05 07:23:21;;;;;;;28.77;18.73;;;;;;;;;;5027681;28;20169;-59
2024/03/05 07:25:47;;;;;;;28.87;19.40;;;;;;;;;;5022025;28;20249;-59
2024/03/05 07:28:13;;;;;;;32.47;20.37;;;;;;;;;;5024802;28;20780;-59
2024/03/05 07:30:42;;;;;;;28.93;18.73;;;;;;;;;;5020515;28;20181;-59
2024/03/05 07:33:09;;;;;;;31.00;19.47;;;;;;;;;;5012291;28;20179;-59
2024/03/05 07:35:40;;;;;;;30.07;18.30;;;;;;;;;;5022011;28;20525;-54
2024/03/05 07:38:09;;;;;;;31.67;20.17;;;;;;;;;;5026864;28;20181;-54
2024/03/05 07:40:35;;;;;;;26.30;18.10;;;;;;;;;;5023234;28;20193;-53
2024/03/05 07:43:04;;;;;;;34.67;19.63;;;;;;;;;;5008006;28;20792;-53
2024/03/05 07:45:33;;;;;;;28.17;19.47;;;;;;;;;;5020923;28;20202;-52
2024/03/05 07:47:59;;;;;;;26.33;19.47;;;;;;;;;;5012390;28;20183;-53
2024/03/05 07:50:25;;;;;;;26.97;18.70;;;;;;;;;;5020522;28;20197;-54
2024/03/05 07:52:53;;;;;;;27.73;18.30;;;;;;;;;;5027746;28;20159;-54
2024/03/05 07:55:21;;;;;;;25.50;18.00;;;;;;;;;;5020542;28;20178;-51
2024/03/05 07:57:52;;;;;;;28.13;18.87;;;;;;;;;;5013646;28;20190;-52
2024/03/05 08:00:20;;;;;;;27.87;18.53;;;;;;;;;;5017342;28;20642;-50
2024/03/05 08:02:46;;;;;;;28.07;17.93;;;;;;;;;;5007779;28;20170;-50
2024/03/05 08:05:17;;;;;;;27.60;19.07;;;;;;;;;;5018786;28;20729;-51
2024/03/05 08:07:43;;;;;;;27.30;18.17;;;;;;;;;;5030932;28;20163;-50
2024/03/05 08:10:09;;;;;;;30.40;19.13;;;;;;;;;;5030014;28;20267;-52
2024/03/05 08:12:36;;;;;;;24.57;16.67;;;;;;;;;;5030208;28;20166;-50
2024/03/05 08:15:12;;;;;;;27.03;18.70;;;;;;;;;;5021777;28;20581;-51
2024/03/05 08:17:39;;;;;;;29.63;18.10;;;;;;;;;;5011916;28;20197;-50
2024/03/05 08:20:06;;;;;;;28.97;17.60;;;;;;;;;;5026828;28;20283;-53
2024/03/05 08:22:34;;;;;;;29.27;18.53;;;;;;;;;;5021093;28;20178;-51
2024/03/05 08:25:07;;;;;;;24.90;16.53;;;;;;;;;;5010301;28;20764;-52
2024/03/05 08:27:33;;;;;;;28.27;18.77;;;;;;;;;;5014406;28;20171;-50
2024/03/05 08:30:00;;;;;;;27.50;17.57;;;;;;;;;;5015307;28;20244;-50
2024/03/05 08:32:26;;;;;;;27.13;17.70;;;;;;;;;;5015075;28;20486;-51
2024/03/05 08:34:52;;;;;;;27.90;19.00;;;;;;;;;;5021552;28;20213;-51
2024/03/05 08:37:18;;;;;;;28.23;17.97;;;;;;;;;;5017348;28;20236;-51
2024/03/05 08:39:45;;;;;;;27.90;17.87;;;;;;;;;;5011894;28;20186;-51
2024/03/05 08:42:11;;;;;;;25.77;17.30;;;;;;;;;;5014879;28;20206;-51
2024/03/05 08:44:37;;;;;;;25.30;16.80;;;;;;;;;;5017908;28;20671;-55
2024/03/05 08:47:03;;;;;;;26.73;17.53;;;;;;;;;;5010816;28;20209;-56
2024/03/05 08:49:29;;;;;;;27.47;18.40;;;;;;;;;;5010022;28;20619;-54
2024/03/05 08:51:58;;;;;;;28.57;18.60;;;;;;;;;;5016612;28;20248;-56
2024/03/05 08:54:24;;;;;;;31.87;19.10;;;;;;;;;;5019066;28;20645;-56
2024/03/05 08:56:50;;;;;;;25.60;17.23;;;;;;;;;;5018707;28;20296;-56
2024/03/05 08:59:16;;;;;;;30.27;17.97;;;;;;;;;;5019356;28;20182;-56
2024/03/05 09:01:42;;;;;;;30.77;19.13;;;;;;;;;;5011233;28;20209;-56
2024/03/05 09:04:09;;;;;;;26.20;17.47;;;;;;;;;;5030015;28;20190;-54
2024/03/05 09:06:36;;;;;;;28.80;18.97;;;;;;;;;;5013036;28;20653;-56
2024/03/05 09:09:02;;;;;;;32.63;20.57;;;;;;;;;;5012013;28;20220;-58
2024/03/05 09:11:28;;;;;;;32.00;20.40;;;;;;;;;;5014585;28;20190;-59
2024/03/05 09:13:54;;;;;;;30.50;20.13;;;;;;;;;;5009577;28;20185;-59
2024/03/05 09:16:20;;;;;;;35.63;21.37;;;;;;;;;;5015638;28;20527;-59
2024/03/05 09:18:46;;;;;;;32.27;20.53;;;;;;;;;;5010906;28;20220;-58
2024/03/05 09:21:14;;;;;;;29.93;19.60;;;;;;;;;;5017044;28;20252;-59
2024/03/05 09:23:40;;;;;;;36.10;23.17;;;;;;;;;;5013306;28;20185;-56
2024/03/05 09:26:10;;;;;;;33.07;21.20;;;;;;;;;;5009845;28;20628;-57
2024/03/05 09:28:36;;;;;;;31.47;22.10;;;;;;;;;;5010743;28;20198;-57
2024/03/05 09:31:02;;;;;;;37.37;21.93;;;;;;;;;;5014919;28;20182;-56
2024/03/05 09:33:31;;;;;;;33.43;21.10;;;;;;;;;;5015508;28;20225;-55
2024/03/05 09:35:58;;;;;;;29.70;20.77;;;;;;;;;;5016543;28;20183;-57
2024/03/05 09:38:24;;;;;;;31.90;20.97;;;;;;;;;;5019196;28;20188;-56
2024/03/05 09:40:51;;;;;;;30.87;20.10;;;;;;;;;;5022815;28;20248;-57
2024/03/05 09:43:21;;;;;;;31.47;19.97;;;;;;;;;;5011298;28;20291;-55
2024/03/05 09:45:48;;;;;;;34.07;22.07;;;;;;;;;;5008770;28;20194;-57
2024/03/05 09:48:18;;;;;;;38.63;22.50;;;;;;;;;;5013619;28;20186;-57
2024/03/05 09:50:45;;;;;;;32.10;20.00;;;;;;;;;;5014680;28;20273;-57
2024/03/05 09:53:14;;;;;;;33.33;21.27;;;;;;;;;;5008798;28;20265;-56
2024/03/05 09:55:40;;;;;;;35.80;21.43;;;;;;;;;;5010776;28;20186;-54
2024/03/05 09:58:14;;;;;;;34.07;20.80;;;;;;;;;;5020542;28;20662;-53
2024/03/05 10:00:40;;;;;;;33.77;21.43;;;;;;;;;;5016093;28;20264;-53
2024/03/05 10:03:10;;;;;;;30.20;19.73;;;;;;;;;;5016889;28;20768;-53
2024/03/05 10:05:37;;;;;;;34.60;22.87;;;;;;;;;;5010696;28;20331;-53
2024/03/05 10:08:04;;;;;;;32.77;21.60;;;;;;;;;;5014604;28;20202;-54
2024/03/05 10:10:32;;;;;;;30.57;19.70;;;;;;;;;;5007720;28;20194;-54
2024/03/05 10:13:01;;;;;;;33.10;20.17;;;;;;;;;;5020354;28;20589;-54
2024/03/05 10:15:27;;;;;;;27.10;19.33;;;;;;;;;;5013473;28;20187;-54
2024/03/05 10:17:54;;;;;;;31.37;20.53;;;;;;;;;;5018731;28;20190;-53
2024/03/05 10:20:26;;;;;;;34.13;21.80;;;;;;;;;;5019041;28;20331;-54
2024/03/05 10:22:53;;;;;;;28.90;19.40;;;;;;;;;;5012509;28;20228;-54
2024/03/05 10:25:19;;;;;;;31.40;20.10;;;;;;;;;;5019348;28;20276;-54
2024/03/05 10:27:47;;;;;;;30.23;18.80;;;;;;;;;;5010475;28;20201;-53
2024/03/05 10:30:20;;;;;;;31.67;19.87;;;;;;;;;;5013747;28;20268;-54
2024/03/05 10:32:52;;;;;;;31.17;18.60;;;;;;;;;;5014649;28;20205;-53
2024/03/05 10:35:18;;;;;;;28.97;20.10;;;;;;;;;;5012876;28;20512;-54
2024/03/05 10:37:44;;;;;;;28.00;20.17;;;;;;;;;;5009099;28;20269;-53
2024/03/05 10:40:11;;;;;;;30.03;19.67;;;;;;;;;;5011315;28;20736;-53
2024/03/05 10:42:38;;;;;;;27.10;19.40;;;;;;;;;;5019391;28;20684;-53
2024/03/05 10:45:05;;;;;;;30.73;20.30;;;;;;;;;;5010333;28;20627;-54
2024/03/05 10:47:31;;;;;;;30.67;19.87;;;;;;;;;;5011602;28;20406;-53
2024/03/05 10:49:58;;;;;;;38.43;21.27;;;;;;;;;;5020058;28;20223;-53
2024/03/05 10:52:29;;;;;;;27.03;18.83;;;;;;;;;;5020280;28;20262;-53
2024/03/05 10:54:56;;;;;;;29.17;18.57;;;;;;;;;;5009083;28;20736;-54
2024/03/05 10:57:28;;;;;;;30.10;19.10;;;;;;;;;;5019671;28;20185;-54
2024/03/05 10:59:54;;;;;;;29.13;18.90;;;;;;;;;;5026850;28;20581;-53
2024/03/05 11:02:27;;;;;;;28.80;18.90;;;;;;;;;;5019822;28;20175;-54
2024/03/05 11:04:53;;;;;;;28.83;19.67;;;;;;;;;;5013898;28;20220;-55
2024/03/05 11:07:21;;;;;;;30.30;20.67;;;;;;;;;;5019200;28;20580;-54
2024/03/05 11:09:47;;;;;;;29.73;18.80;;;;;;;;;;5020526;28;20182;-54
2024/03/05 11:12:16;;;;;;;28.40;19.17;;;;;;;;;;5013116;28;20711;-54
2024/03/05 11:14:45;;;;;;;29.20;19.47;;;;;;;;;;5024077;28;20668;-54
2024/03/05 11:17:11;;;;;;;28.80;18.97;;;;;;;;;;5009433;28;20189;-54
2024/03/05 11:19:39;;;;;;;28.37;18.20;;;;;;;;;;5027682;28;20158;-53
2024/03/05 11:22:22;;;;;;;28.87;19.00;;;;;;;;;;5027385;28;20185;-53
2024/03/05 11:24:50;;;;;;;30.87;20.83;;;;;;;;;;5026781;28;20741;-54
2024/03/05 11:27:23;;;;;;;27.73;18.53;;;;;;;;;;5023552;28;20189;-54
2024/03/05 11:29:49;;;;;;;28.17;19.30;;;;;;;;;;5021026;28;20261;-54
2024/03/05 11:32:15;;;;;;;27.87;18.57;;;;;;;;;;5010776;28;20274;-54
2024/03/05 11:34:47;;;;;;;25.80;17.90;;;;;;;;;;5018767;28;20199;-54
2024/03/05 11:37:15;;;;;;;28.00;18.40;;;;;;;;;;5009691;28;20167;-53
2024/03/05 11:39:44;;;;;;;24.83;18.33;;;;;;;;;;5017374;28;20560;-54
2024/03/05 11:42:17;;;;;;;26.07;18.40;;;;;;;;;;5011949;28;21048;-54
2024/03/05 11:44:46;;;;;;;27.80;17.60;;;;;;;;;;5023562;28;20219;-54
2024/03/05 11:47:18;;;;;;;25.87;17.47;;;;;;;;;;5023471;28;20288;-53
2024/03/05 11:49:44;;;;;;;26.90;17.60;;;;;;;;;;5025276;28;20229;-54
2024/03/05 11:52:13;;;;;;;22.50;16.77;;;;;;;;;;5013011;28;20174;-54
2024/03/05 11:54:39;;;;;;;26.97;17.53;;;;;;;;;;5030379;28;20181;-54
2024/03/05 11:57:07;;;;;;;27.40;17.03;;;;;;;;;;5030709;28;20190;-54
2024/03/05 11:59:34;;;;;;;24.50;16.63;;;;;;;;;;5021844;28;20186;-54
2024/03/05 12:02:00;;;;;;;27.87;17.37;;;;;;;;;;5011771;28;20655;-54
2024/03/05 12:04:27;;;;;;;21.43;15.57;;;;;;;;;;5022794;28;20186;-53
2024/03/05 12:07:06;;;;;;;23.70;16.83;;;;;;;;;;5019624;28;20181;-53
2024/03/05 12:09:37;;;;;;;23.23;16.30;;;;;;;;;;5029439;28;20253;-54
2024/03/05 12:12:09;;;;;;;21.73;15.73;;;;;;;;;;5017294;28;20186;-54
2024/03/05 12:14:36;;;;;;;21.47;16.47;;;;;;;;;;5022883;28;20179;-54
2024/03/05 12:17:12;;;;;;;22.20;16.07;;;;;;;;;;5018193;28;20212;-51
2024/03/05 12:19:40;;;;;;;21.43;15.97;;;;;;;;;;5030903;28;20192;-51
2024/03/05 12:22:07;;;;;;;22.47;17.23;;;;;;;;;;5021649;28;20589;-53
2024/03/05 12:24:34;;;;;;;23.40;15.93;;;;;;;;;;5030251;28;20170;-52
2024/03/05 12:27:01;;;;;;;20.40;16.27;;;;;;;;;;5029383;28;20265;-51
2024/03/05 12:29:27;;;;;;;21.20;14.93;;;;;;;;;;5026634;28;20183;-50
2024/03/05 12:31:55;;;;;;;21.13;15.90;;;;;;;;;;5011011;28;20163;-50
2024/03/05 12:34:21;;;;;;;21.67;15.50;;;;;;;;;;5029852;28;20227;-52
2024/03/05 12:36:48;;;;;;;23.23;15.93;;;;;;;;;;5029879;28;20871;-52
2024/03/05 12:39:18;;;;;;;21.20;15.03;;;;;;;;;;5018824;28;20183;-50
2024/03/05 12:42:05;;;;;;;24.23;15.97;;;;;;;;;;5017655;28;20213;-53
2024/03/05 12:44:31;;;;;;;20.27;14.73;;;;;;;;;;5018558;28;20692;-53
2024/03/05 12:47:06;;;;;;;23.47;15.70;;;;;;;;;;5025849;28;20646;-53
2024/03/05 12:49:32;;;;;;;21.57;16.03;;;;;;;;;;5013439;28;20189;-55
2024/03/05 12:52:08;;;;;;;21.93;16.57;;;;;;;;;;5025721;28;20272;-53
2024/03/05 12:54:34;;;;;;;20.33;15.57;;;;;;;;;;5009502;28;20546;-53
2024/03/05 12:57:00;;;;;;;20.83;14.83;;;;;;;;;;5011466;28;20186;-53
2024/03/05 12:59:26;;;;;;;20.60;15.40;;;;;;;;;;5046063;28;20186;-53
2024/03/05 13:01:56;;;;;;;22.87;15.83;;;;;;;;;;5037453;28;20193;-53
2024/03/05 13:04:22;;;;;;;22.63;15.67;;;;;;;;;;5021121;28;20642;-53
2024/03/05 13:06:49;;;;;;;19.47;14.87;;;;;;;;;;5021991;28;20206;-53
2024/03/05 13:09:19;;;;;;;20.17;14.20;;;;;;;;;;5021496;28;20183;-53
2024/03/05 13:11:46;;;;;;;18.83;14.53;;;;;;;;;;5019982;28;20704;-53
2024/03/05 13:14:13;;;;;;;16.53;13.47;;;;;;;;;;5013718;28;20603;-54
2024/03/05 13:16:39;;;;;;;18.37;13.43;;;;;;;;;;5015106;28;20186;-54
2024/03/05 13:19:06;;;;;;;18.77;14.23;;;;;;;;;;5029231;28;20181;-53
2024/03/05 13:21:33;;;;;;;18.97;14.00;;;;;;;;;;5027277;28;20463;-53
2024/03/05 13:23:59;;;;;;;18.50;13.17;;;;;;;;;;5028457;28;20177;-52
2024/03/05 13:26:26;;;;;;;17.97;13.80;;;;;;;;;;5028546;28;20285;-57
2024/03/05 13:28:52;;;;;;;16.90;12.90;;;;;;;;;;5029001;28;20525;-57
2024/03/05 13:31:18;;;;;;;18.90;13.67;;;;;;;;;;5028102;28;20178;-56
2024/03/05 13:33:44;;;;;;;15.97;13.07;;;;;;;;;;5028996;28;20181;-57
2024/03/05 13:36:12;;;;;;;14.90;12.67;;;;;;;;;;5029494;28;20170;-58
2024/03/05 13:38:38;;;;;;;18.73;12.53;;;;;;;;;;5024866;28;20217;-58
2024/03/05 13:41:04;;;;;;;15.97;11.97;;;;;;;;;;5008593;28;20623;-58
2024/03/05 13:43:30;;;;;;;16.63;12.37;;;;;;;;;;5020134;28;20236;-59
2024/03/05 13:45:58;;;;;;;15.67;12.57;;;;;;;;;;5028805;28;20194;-58
2024/03/05 13:48:25;;;;;;;17.77;12.97;;;;;;;;;;5020508;28;20247;-57
2024/03/05 13:50:54;;;;;;;15.73;12.67;;;;;;;;;;5029387;28;20170;-59
2024/03/05 13:53:23;;;;;;;15.80;12.50;;;;;;;;;;5020674;28;20182;-58
2024/03/05 13:55:54;;;;;;;17.40;12.27;;;;;;;;;;5020835;28;20236;-57
2024/03/05 13:58:21;;;;;;;14.67;12.00;;;;;;;;;;5019991;28;20180;-57
2024/03/05 14:00:47;;;;;;;13.30;11.20;;;;;;;;;;5020733;28;20587;-59
2024/03/05 14:03:13;;;;;;;13.87;11.97;;;;;;;;;;5020131;28;20772;-58
2024/03/05 14:05:42;;;;;;;15.63;12.00;;;;;;;;;;5014434;28;20608;-57
2024/03/05 14:08:12;;;;;;;14.53;11.77;;;;;;;;;;5024896;28;20274;-58
2024/03/05 14:10:38;;;;;;;14.67;10.47;;;;;;;;;;5026823;28;20253;-58
2024/03/05 14:13:13;;;;;;;15.70;11.60;;;;;;;;;;5023697;28;20170;-59
2024/03/05 14:15:42;;;;;;;13.70;10.87;;;;;;;;;;5028205;28;20239;-59
2024/03/05 14:18:10;;;;;;;11.33;10.13;;;;;;;;;;5022196;28;20522;-58
2024/03/05 14:20:38;;;;;;;13.63;10.13;;;;;;;;;;5021559;28;20729;-58
2024/03/05 14:23:05;;;;;;;12.80;11.37;;;;;;;;;;5023411;28;20221;-58